地図

経路データ

SID SEASON NUMBER BASIN SUBBASIN NAME ISO_TIME NATURE LAT LON WMO_WIND WMO_PRES WMO_AGENCY TRACK_TYPE DIST2LAND LANDFALL IFLAG USA_AGENCY USA_ATCF_ID USA_LAT USA_LON USA_RECORD USA_STATUS USA_WIND USA_PRES USA_SSHS USA_R34_NE USA_R34_SE USA_R34_SW USA_R34_NW USA_R50_NE USA_R50_SE USA_R50_SW USA_R50_NW USA_R64_NE USA_R64_SE USA_R64_SW USA_R64_NW USA_POCI USA_ROCI USA_RMW USA_EYE TOKYO_LAT TOKYO_LON TOKYO_GRADE TOKYO_WIND TOKYO_PRES TOKYO_R50_DIR TOKYO_R50_LONG TOKYO_R50_SHORT TOKYO_R30_DIR TOKYO_R30_LONG TOKYO_R30_SHORT TOKYO_LAND CMA_LAT CMA_LON CMA_CAT CMA_WIND CMA_PRES HKO_LAT HKO_LON HKO_CAT HKO_WIND HKO_PRES NEWDELHI_LAT NEWDELHI_LON NEWDELHI_GRADE NEWDELHI_WIND NEWDELHI_PRES NEWDELHI_CI NEWDELHI_DP NEWDELHI_POCI REUNION_LAT REUNION_LON REUNION_TYPE REUNION_WIND REUNION_PRES REUNION_TNUM REUNION_CI REUNION_RMW REUNION_R34_NE REUNION_R34_SE REUNION_R34_SW REUNION_R34_NW REUNION_R50_NE REUNION_R50_SE REUNION_R50_SW REUNION_R50_NW REUNION_R64_NE REUNION_R64_SE REUNION_R64_SW REUNION_R64_NW BOM_LAT BOM_LON BOM_TYPE BOM_WIND BOM_PRES BOM_TNUM BOM_CI BOM_RMW BOM_R34_NE BOM_R34_SE BOM_R34_SW BOM_R34_NW BOM_R50_NE BOM_R50_SE BOM_R50_SW BOM_R50_NW BOM_R64_NE BOM_R64_SE BOM_R64_SW BOM_R64_NW BOM_ROCI BOM_POCI BOM_EYE BOM_POS_METHOD BOM_PRES_METHOD NADI_LAT NADI_LON NADI_CAT NADI_WIND NADI_PRES WELLINGTON_LAT WELLINGTON_LON WELLINGTON_WIND WELLINGTON_PRES DS824_LAT DS824_LON DS824_STAGE DS824_WIND DS824_PRES TD9636_LAT TD9636_LON TD9636_STAGE TD9636_WIND TD9636_PRES TD9635_LAT TD9635_LON TD9635_WIND TD9635_PRES TD9635_ROCI NEUMANN_LAT NEUMANN_LON NEUMANN_CLASS NEUMANN_WIND NEUMANN_PRES MLC_LAT MLC_LON MLC_CLASS MLC_WIND MLC_PRES USA_GUST BOM_GUST BOM_GUST_PER REUNION_GUST REUNION_GUST_PER USA_SEAHGT USA_SEARAD_NE USA_SEARAD_SE USA_SEARAD_SW USA_SEARAD_NW STORM_SPEED STORM_DIR
1983255N12261 1983 57 EP MM MANUEL 1983-09-12 06:00:00 TS 11.9000 -99.2000 30 hurdat_epa main 483 476 O_________O___ hurdat_epa EP131983 11.9000 -99.2000 TD 30 -1 11.9000 -99.2000 1 30 10 294
1983255N12261 1983 57 EP MM MANUEL 1983-09-12 09:00:00 TS 12.0985 -99.6605 main 482 472 P_________P___ EP131983 12.0977 -99.6624 TD 32 -1 12.1011 -99.6550 1 32 10 294
1983255N12261 1983 57 EP MM MANUEL 1983-09-12 12:00:00 TS 12.3000 -100.100 35 hurdat_epa main 476 467 O_________O___ hurdat_epa EP131983 12.3000 -100.100 TS 35 0 12.3000 -100.100 2 35 9 296
1983255N12261 1983 57 EP MM MANUEL 1983-09-12 15:00:00 TS 12.5042 -100.507 main 472 463 P_________P___ EP131983 12.5074 -100.500 TS 37 0 12.4948 -100.528 2 38 9 296
1983255N12261 1983 57 EP MM MANUEL 1983-09-12 18:00:00 TS 12.6951 -100.912 40 hurdat_epa main 466 461 O_________P___ hurdat_epa EP131983 12.7000 -100.900 TS 40 0 12.6803 -100.947 2 42 9 293
1983255N12261 1983 57 EP MM MANUEL 1983-09-12 21:00:00 TS 12.8557 -101.343 main 458 458 P_________P___ EP131983 12.8574 -101.335 TS 45 0 12.8507 -101.367 2 46 9 289
1983255N12261 1983 57 EP MM MANUEL 1983-09-13 00:00:00 TS 13.0000 -101.800 50 hurdat_epa main 471 471 O_________O___ hurdat_epa EP131983 13.0000 -101.800 TS 50 0 13.0000 -101.800 2 50 10 288
1983255N12261 1983 57 EP MM MANUEL 1983-09-13 03:00:00 TS 13.1562 -102.294 main 475 475 P_________P___ EP131983 13.1650 -102.300 TS 52 0 13.1297 -102.277 2 51 10 286
1983255N12261 1983 57 EP MM MANUEL 1983-09-13 06:00:00 TS 13.2844 -102.791 55 hurdat_epa main 483 483 O_________P___ hurdat_epa EP131983 13.3000 -102.800 TS 55 0 13.2376 -102.765 2 52 10 282
1983255N12261 1983 57 EP MM MANUEL 1983-09-13 09:00:00 TS 13.3554 -103.266 main 496 496 P_________P___ EP131983 13.3650 -103.273 TS 55 0 13.3266 -103.246 2 53 9 277
1983255N12261 1983 57 EP MM MANUEL 1983-09-13 12:00:00 TS 13.4000 -103.700 55 hurdat_epa main 518 518 O_________O___ hurdat_epa EP131983 13.4000 -103.700 TS 55 0 13.4000 -103.700 2 55 8 277
1983255N12261 1983 57 EP MM MANUEL 1983-09-13 15:00:00 TS 13.4504 -104.070 main 528 528 P_________P___ EP131983 13.4499 -104.058 TS 57 0 13.4522 -104.108 2 56 7 278
1983255N12261 1983 57 EP MM MANUEL 1983-09-13 18:00:00 TS 13.4982 -104.422 60 hurdat_epa main 539 539 O_________P___ hurdat_epa EP131983 13.5000 -104.400 TS 60 0 13.4928 -104.488 2 57 7 277
1983255N12261 1983 57 EP MM MANUEL 1983-09-13 21:00:00 TS 13.5411 -104.812 main 553 546 P_________P___ EP131983 13.5425 -104.800 TS 60 0 13.5370 -104.849 2 58 8 278
1983255N12261 1983 57 EP MM MANUEL 1983-09-14 00:00:00 TS 13.6000 -105.200 60 hurdat_epa main 556 553 O_________O___ hurdat_epa EP131983 13.6000 -105.200 TS 60 0 13.6000 -105.200 2 60 7 281
1983255N12261 1983 57 EP MM MANUEL 1983-09-14 03:00:00 TS 13.6777 -105.541 main 557 557 P_________P___ EP131983 13.6773 -105.543 TS 65 1 13.6787 -105.536 2 65 7 286
1983255N12261 1983 57 EP MM MANUEL 1983-09-14 06:00:00 TS 13.8000 -105.900 70 hurdat_epa main 565 560 O_________O___ hurdat_epa EP131983 13.8000 -105.900 HU 70 1 13.8000 -105.900 3 70 8 291
1983255N12261 1983 57 EP MM MANUEL 1983-09-14 09:00:00 TS 13.9790 -106.335 main 566 566 P_________P___ EP131983 13.9775 -106.335 HU 72 1 13.9837 -106.336 3 72 10 295
1983255N12261 1983 57 EP MM MANUEL 1983-09-14 12:00:00 TS 14.2000 -106.800 75 hurdat_epa main 578 576 O_________O___ hurdat_epa EP131983 14.2000 -106.800 HU 75 1 14.2000 -106.800 4 75 10 297
1983255N12261 1983 57 EP MM MANUEL 1983-09-14 15:00:00 TS 14.4405 -107.251 main 595 587 P_________P___ EP131983 14.4575 -107.257 HU 77 1 14.3895 -107.232 4 72 10 299
1983255N12261 1983 57 EP MM MANUEL 1983-09-14 18:00:00 TS 14.6698 -107.689 80 hurdat_epa main 590 590 O_________P___ hurdat_epa EP131983 14.7000 -107.700 HU 80 1 14.5792 -107.654 4 70 9 295
1983255N12261 1983 57 EP MM MANUEL 1983-09-14 21:00:00 TS 14.8266 -108.099 main 604 601 P_________P___ EP131983 14.8424 -108.108 HU 72 1 14.7792 -108.074 4 67 9 293
1983255N12261 1983 57 EP MM MANUEL 1983-09-15 00:00:00 TS 15.0000 -108.500 65 hurdat_epa main 612 609 O_________O___ hurdat_epa EP131983 15.0000 -108.500 HU 65 1 15.0000 -108.500 4 65 9 300
1983255N12261 1983 57 EP MM MANUEL 1983-09-15 03:00:00 TS 15.2800 -108.900 main 616 615 P_________P___ EP131983 15.2848 -108.885 HU 67 1 15.2655 -108.947 4 67 10 306
1983255N12261 1983 57 EP MM MANUEL 1983-09-15 06:00:00 TS 15.5875 -109.325 70 hurdat_epa main 623 623 O_________P___ hurdat_epa EP131983 15.6000 -109.300 HU 70 1 15.5498 -109.400 4 70 11 303
1983255N12261 1983 57 EP MM MANUEL 1983-09-15 09:00:00 TS 15.8573 -109.808 main 638 638 P_________P___ EP131983 15.8650 -109.793 HU 72 1 15.8342 -109.853 4 72 11 299
1983255N12261 1983 57 EP MM MANUEL 1983-09-15 12:00:00 TS 16.1000 -110.300 75 hurdat_epa main 664 664 O_________O___ hurdat_epa EP131983 16.1000 -110.300 HU 75 1 16.1000 -110.300 4 75 10 296
1983255N12261 1983 57 EP MM MANUEL 1983-09-15 15:00:00 TS 16.3099 -110.764 main 694 694 P_________P___ EP131983 16.3074 -110.765 HU 75 1 16.3175 -110.761 4 76 10 295
1983255N12261 1983 57 EP MM MANUEL 1983-09-15 18:00:00 TS 16.5038 -111.203 75 hurdat_epa main 718 710 O_________P___ hurdat_epa EP131983 16.5000 -111.200 HU 75 1 16.5151 -111.210 4 77 9 295
1983255N12261 1983 57 EP MM MANUEL 1983-09-15 21:00:00 TS 16.7013 -111.630 main 713 699 P_________P___ EP131983 16.7000 -111.630 HU 77 1 16.7051 -111.630 4 78 9 297
1983255N12261 1983 57 EP MM MANUEL 1983-09-16 00:00:00 TS 16.9000 -112.000 80 hurdat_epa main 702 688 O_________O___ hurdat_epa EP131983 16.9000 -112.000 HU 80 1 16.9000 -112.000 4 80 7 302
1983255N12261 1983 57 EP MM MANUEL 1983-09-16 03:00:00 TS 17.0935 -112.278 main 691 678 P_________P___ EP131983 17.0924 -112.273 HU 80 1 17.0969 -112.293 4 80 6 309
1983255N12261 1983 57 EP MM MANUEL 1983-09-16 06:00:00 TS 17.3011 -112.510 80 hurdat_epa main 678 666 O_________P___ hurdat_epa EP131983 17.3000 -112.500 HU 80 1 17.3043 -112.538 4 80 6 315
1983255N12261 1983 57 EP MM MANUEL 1983-09-16 09:00:00 TS 17.5405 -112.748 main 666 650 P_________P___ EP131983 17.5424 -112.743 HU 80 1 17.5345 -112.765 4 80 7 317
1983255N12261 1983 57 EP MM MANUEL 1983-09-16 12:00:00 TS 17.8000 -113.000 80 hurdat_epa main 650 641 O_________O___ hurdat_epa EP131983 17.8000 -113.000 HU 80 1 17.8000 -113.000 4 80 7 314
1983255N12261 1983 57 EP MM MANUEL 1983-09-16 15:00:00 TS 18.0415 -113.291 main 646 630 P_________P___ EP131983 18.0200 -113.293 HU 82 1 18.1059 -113.286 4 82 8 313
1983255N12261 1983 57 EP MM MANUEL 1983-09-16 18:00:00 TS 18.3369 -113.596 85 hurdat_epa main 636 613 O_________P___ hurdat_epa EP131983 18.3000 -113.600 HU 85 2 18.4475 -113.585 4 85 9 321
1983255N12261 1983 57 EP MM MANUEL 1983-09-16 21:00:00 TS 18.7550 -113.898 main 611 600 P_________P___ EP131983 18.7350 -113.900 HU 87 2 18.8153 -113.892 4 87 10 326
1983255N12261 1983 57 EP MM MANUEL 1983-09-17 00:00:00 TS 19.2000 -114.200 90 hurdat_epa main 600 593 O_________O___ hurdat_epa EP131983 19.2000 -114.200 HU 90 2 19.2000 -114.200 4 90 10 325
1983255N12261 1983 57 EP MM MANUEL 1983-09-17 03:00:00 TS 19.5547 -114.498 main 594 590 P_________P___ EP131983 19.5499 -114.500 HU 95 2 19.5692 -114.493 4 92 9 322
1983255N12261 1983 57 EP MM MANUEL 1983-09-17 06:00:00 TS 19.9137 -114.797 100 hurdat_epa main 599 573 O_________P___ hurdat_epa EP131983 19.9000 -114.800 HU 100 3 19.9547 -114.786 4 95 10 324
1983255N12261 1983 57 EP MM MANUEL 1983-09-17 09:00:00 TS 20.3250 -115.091 main 579 551 P_________P___ EP131983 20.3124 -115.093 HU 100 3 20.3629 -115.087 4 97 11 327
1983255N12261 1983 57 EP MM MANUEL 1983-09-17 12:00:00 TS 20.8000 -115.400 100 hurdat_epa main 551 529 O_________O___ hurdat_epa EP131983 20.8000 -115.400 HU 100 3 20.8000 -115.400 4 100 12 330
1983255N12261 1983 57 EP MM MANUEL 1983-09-17 15:00:00 TS 21.3785 -115.741 main 521 505 P_________P___ EP131983 21.4075 -115.742 HU 95 2 21.2915 -115.735 4 95 13 331
1983255N12261 1983 57 EP MM MANUEL 1983-09-17 18:00:00 TS 21.9518 -116.096 90 hurdat_epa main 506 502 O_________P___ hurdat_epa EP131983 22.0000 -116.100 HU 90 2 21.8074 -116.085 4 90 12 327
1983255N12261 1983 57 EP MM MANUEL 1983-09-17 21:00:00 TS 22.4024 -116.454 main 513 507 P_________P___ EP131983 22.4300 -116.458 HU 85 2 22.3196 -116.442 4 85 11 323
1983255N12261 1983 57 EP MM MANUEL 1983-09-18 00:00:00 TS 22.8000 -116.800 80 hurdat_epa main 518 518 O_________O___ hurdat_epa EP131983 22.8000 -116.800 HU 80 1 22.8000 -116.800 4 80 10 323
1983255N12261 1983 57 EP MM MANUEL 1983-09-18 03:00:00 TS 23.2092 -117.109 main 522 502 P_________P___ EP131983 23.2073 -117.093 HU 77 1 23.2148 -117.159 4 76 10 324
1983255N12261 1983 57 EP MM MANUEL 1983-09-18 06:00:00 TS 23.5987 -117.429 75 hurdat_epa main 502 495 O_________P___ hurdat_epa EP131983 23.6000 -117.400 HU 75 1 23.5948 -117.516 4 72 10 319
1983255N12261 1983 57 EP MM MANUEL 1983-09-18 09:00:00 TS 23.9619 -117.816 main 493 492 P_________P___ EP131983 23.9651 -117.800 HU 70 1 23.9524 -117.865 4 68 10 315
1983255N12261 1983 57 EP MM MANUEL 1983-09-18 12:00:00 TS 24.3000 -118.200 65 hurdat_epa main 496 491 O_________O___ hurdat_epa EP131983 24.3000 -118.200 HU 65 1 24.3000 -118.200 4 65 9 315
1983255N12261 1983 57 EP MM MANUEL 1983-09-18 15:00:00 TS 24.6035 -118.527 main 491 490 P_________P___ EP131983 24.5923 -118.515 HU 60 0 24.6370 -118.563 4 58 8 317
1983255N12261 1983 57 EP MM MANUEL 1983-09-18 18:00:00 TS 24.9176 -118.826 55 hurdat_epa main 490 486 O_________P___ hurdat_epa EP131983 24.9000 -118.800 TS 55 0 24.9703 -118.905 4 52 9 321
1983255N12261 1983 57 EP MM MANUEL 1983-09-18 21:00:00 TS 25.2877 -119.140 main 487 487 P_________P___ EP131983 25.2776 -119.122 TS 47 0 25.3183 -119.194 4 46 9 326
1983255N12261 1983 57 EP MM MANUEL 1983-09-19 00:00:00 TS 25.7000 -119.400 40 hurdat_epa main 490 484 O_________O___ hurdat_epa EP131983 25.7000 -119.400 TS 40 0 25.7000 -119.400 2 40 9 334
1983255N12261 1983 57 EP MM MANUEL 1983-09-19 03:00:00 TS 26.1389 -119.592 main 489 477 P_________P___ EP131983 26.1349 -119.617 TS 37 0 26.1508 -119.515 2 38 9 346
1983255N12261 1983 57 EP MM MANUEL 1983-09-19 06:00:00 TS 26.6086 -119.661 35 hurdat_epa main 480 458 O_________P___ hurdat_epa EP131983 26.6000 -119.700 TS 35 0 26.6344 -119.543 2 37 10 0
1983255N12261 1983 57 EP MM MANUEL 1983-09-19 09:00:00 TS 27.1065 -119.577 main 458 433 P_________P___ EP131983 27.1000 -119.603 TS 35 0 27.1259 -119.499 2 36 10 13
1983255N12261 1983 57 EP MM MANUEL 1983-09-19 12:00:00 TS 27.6000 -119.400 35 hurdat_epa main 433 392 O_________O___ hurdat_epa EP131983 27.6000 -119.400 TS 35 0 27.6000 -119.400 2 35 10 19
1983255N12261 1983 57 EP MM MANUEL 1983-09-19 15:00:00 TS 28.0649 -119.212 main 386 347 P_________P___ EP131983 28.0725 -119.200 TS 32 -1 28.0421 -119.248 2 32 10 21
1983255N12261 1983 57 EP MM MANUEL 1983-09-19 18:00:00 TS 28.4901 -119.013 30 hurdat_epa main 347 315 O_________P___ hurdat_epa EP131983 28.5000 -119.000 TD 30 -1 28.4604 -119.052 2 30 9 22
1983255N12261 1983 57 EP MM MANUEL 1983-09-19 21:00:00 TS 28.8665 -118.840 main 310 290 P_________P___ EP131983 28.8725 -118.835 TD 27 -1 28.8484 -118.854 2 27 8 21
1983255N12261 1983 57 EP MM MANUEL 1983-09-20 00:00:00 TS 29.2000 -118.700 25 hurdat_epa main 290 269 O_________O___ hurdat_epa EP131983 29.2000 -118.700 TD 25 -1 29.2000 -118.700 1 25 7 19
1983255N12261 1983 57 EP MM MANUEL 1983-09-20 03:00:00 TS 29.5142 -118.578 main 269 249 P_________P___ EP131983 29.5150 -118.563 TD 25 -1 29.5120 -118.622 1 23 6 14
1983255N12261 1983 57 EP MM MANUEL 1983-09-20 06:00:00 TS 29.7981 -118.528 25 hurdat_epa main 249 238 O_________P___ hurdat_epa EP131983 29.8000 -118.500 TD 25 -1 29.7922 -118.611 1 22 5 357
1983255N12261 1983 57 EP MM MANUEL 1983-09-20 09:00:00 TS 30.0560 -118.583 main 241 237 P_________P___ EP131983 30.0575 -118.562 TD 22 -1 30.0514 -118.644 1 21 5 344
1983255N12261 1983 57 EP MM MANUEL 1983-09-20 12:00:00 TS 30.3000 -118.700 20 hurdat_epa main 239 O_________O___ hurdat_epa EP131983 30.3000 -118.700 TD 20 -1 30.3000 -118.700 1 20 5 337

IBTrACS Databaseについて

本データベースは、米国NOAAが公開する1842年以降の世界の熱帯低気圧のベストトラックデータアーカイブInternational Best Track Archive for Climate Stewardship (IBTrACS)を、ウェブで閲覧しやすい形式に変換したものです。

最終更新日:2021-10-25